In Rescue
 
Open Full Screen Window  High Contrast Mode
Wind Gusting 00 knots
07
May 25, 2022 8:27 PM CDT
Present Weather: Mist
Weather Information
Wind Direction
  360 °
Wind Speed
  07 kt (8 mph)
Wind Gust
  00 kt (0 mph)
Altimeter
29.89 in
Visibility
5 SM
Temperature
11° C
52° F
Dewpoint
10° C
50° F
Humidity
94%
1hr Rain Fall
00.00 in.
24hr Rain Fall
00.16 in.
Sky Condition
Overcast @ 2,000 ft
Broken @ 1,400 ft
Broken @ 1,000 ft
MVFR

METAR KHCD 260127Z AUTO 36007KT 5SM BR BKN010 BKN014 OVC020 11/10 A2989 RMK AO2 T01050097

FAA Disclaimer: The data displayed is for advisory purposes only and is not to be used for flight planning or operations.